sensor_id;sensor_type;location;lat;lon;timestamp;pressure;altitude;pressure_sealevel;temperature;humidity
24746;BME280;12845;52.042;6.838;2023-04-28T00:00:49;-18277.22;;;9.25;100.00
24746;BME280;12845;52.042;6.838;2023-04-28T00:03:15;-18276.81;;;9.24;100.00
24746;BME280;12845;52.042;6.838;2023-04-28T00:05:41;-18277.50;;;9.26;100.00
24746;BME280;12845;52.042;6.838;2023-04-28T00:08:06;-18276.25;;;9.22;100.00
24746;BME280;12845;52.042;6.838;2023-04-28T00:10:32;-18276.53;;;9.23;100.00
24746;BME280;12845;52.042;6.838;2023-04-28T00:12:57;-18276.41;;;9.22;100.00
24746;BME280;12845;52.042;6.838;2023-04-28T00:15:23;-18275.72;;;9.20;100.00
24746;BME280;12845;52.042;6.838;2023-04-28T00:17:48;-18273.50;;;9.12;100.00
24746;BME280;12845;52.042;6.838;2023-04-28T00:20:14;-18271.84;;;9.06;100.00
24746;BME280;12845;52.042;6.838;2023-04-28T00:22:39;-18270.63;;;9.01;100.00
24746;BME280;12845;52.042;6.838;2023-04-28T00:25:05;-18272.00;;;9.06;100.00
24746;BME280;12845;52.042;6.838;2023-04-28T00:27:32;-18270.75;;;9.01;100.00
24746;BME280;12845;52.042;6.838;2023-04-28T00:29:57;-18268.16;;;8.92;100.00
24746;BME280;12845;52.042;6.838;2023-04-28T00:32:23;-18265.41;;;8.81;100.00
24746;BME280;12845;52.042;6.838;2023-04-28T00:34:48;-18264.72;;;8.79;100.00
24746;BME280;12845;52.042;6.838;2023-04-28T00:37:13;-18265.81;;;8.83;100.00
24746;BME280;12845;52.042;6.838;2023-04-28T00:39:39;-18267.03;;;8.88;100.00
24746;BME280;12845;52.042;6.838;2023-04-28T00:42:06;-18268.16;;;8.92;100.00
24746;BME280;12845;52.042;6.838;2023-04-28T00:44:31;-18268.41;;;8.93;100.00
24746;BME280;12845;52.042;6.838;2023-04-28T00:46:57;-18268.16;;;8.92;100.00
24746;BME280;12845;52.042;6.838;2023-04-28T00:49:24;-18267.59;;;8.90;100.00
24746;BME280;12845;52.042;6.838;2023-04-28T00:51:49;-18267.31;;;8.89;100.00
24746;BME280;12845;52.042;6.838;2023-04-28T00:54:15;-18267.47;;;8.89;100.00
24746;BME280;12845;52.042;6.838;2023-04-28T00:56:41;-18266.09;;;8.84;100.00
24746;BME280;12845;52.042;6.838;2023-04-28T00:59:07;-18266.91;;;8.87;100.00
24746;BME280;12845;52.042;6.838;2023-04-28T01:01:34;-18266.50;;;8.86;100.00
24746;BME280;12845;52.042;6.838;2023-04-28T01:03:59;-18266.78;;;8.87;100.00
24746;BME280;12845;52.042;6.838;2023-04-28T01:06:26;-18264.84;;;8.79;100.00
24746;BME280;12845;52.042;6.838;2023-04-28T01:08:52;-18265.81;;;8.83;100.00
24746;BME280;12845;52.042;6.838;2023-04-28T01:11:18;-18265.13;;;8.80;100.00
24746;BME280;12845;52.042;6.838;2023-04-28T01:13:43;-18264.97;;;8.80;100.00
24746;BME280;12845;52.042;6.838;2023-04-28T01:16:09;-18262.91;;;8.72;100.00
24746;BME280;12845;52.042;6.838;2023-04-28T01:18:34;-18263.47;;;8.74;100.00
24746;BME280;12845;52.042;6.838;2023-04-28T01:20:59;-18264.72;;;8.79;100.00
24746;BME280;12845;52.042;6.838;2023-04-28T01:23:25;-18264.84;;;8.79;100.00
24746;BME280;12845;52.042;6.838;2023-04-28T01:25:50;-18264.28;;;8.77;100.00
24746;BME280;12845;52.042;6.838;2023-04-28T01:28:16;-18264.00;;;8.76;100.00
24746;BME280;12845;52.042;6.838;2023-04-28T01:30:41;-18264.00;;;8.76;100.00
24746;BME280;12845;52.042;6.838;2023-04-28T01:33:06;-18265.25;;;8.81;100.00
24746;BME280;12845;52.042;6.838;2023-04-28T01:35:32;-18266.91;;;8.87;100.00
24746;BME280;12845;52.042;6.838;2023-04-28T01:37:57;-18266.91;;;8.87;100.00
24746;BME280;12845;52.042;6.838;2023-04-28T01:40:23;-18267.19;;;8.88;100.00
24746;BME280;12845;52.042;6.838;2023-04-28T01:42:48;-18266.78;;;8.87;100.00
24746;BME280;12845;52.042;6.838;2023-04-28T01:45:13;-18267.47;;;8.89;100.00
24746;BME280;12845;52.042;6.838;2023-04-28T01:47:38;-18268.41;;;8.93;100.00
24746;BME280;12845;52.042;6.838;2023-04-28T01:50:04;-18270.91;;;9.02;100.00
24746;BME280;12845;52.042;6.838;2023-04-28T01:52:30;-18268.69;;;8.94;100.00
24746;BME280;12845;52.042;6.838;2023-04-28T01:55:14;-18268.97;;;8.95;100.00
24746;BME280;12845;52.042;6.838;2023-04-28T01:57:39;-18270.34;;;9.00;100.00
24746;BME280;12845;52.042;6.838;2023-04-28T02:00:05;-18268.69;;;8.94;100.00
24746;BME280;12845;52.042;6.838;2023-04-28T02:02:31;-18267.88;;;8.91;100.00
24746;BME280;12845;52.042;6.838;2023-04-28T02:04:56;-18268.00;;;8.91;100.00
24746;BME280;12845;52.042;6.838;2023-04-28T02:07:22;-18264.16;;;8.77;100.00
24746;BME280;12845;52.042;6.838;2023-04-28T02:09:47;-18265.41;;;8.81;100.00
24746;BME280;12845;52.042;6.838;2023-04-28T02:12:13;-18264.44;;;8.78;100.00
24746;BME280;12845;52.042;6.838;2023-04-28T02:14:38;-18264.72;;;8.79;100.00
24746;BME280;12845;52.042;6.838;2023-04-28T02:17:03;-18264.28;;;8.77;100.00
24746;BME280;12845;52.042;6.838;2023-04-28T02:19:29;-18265.25;;;8.81;100.00
24746;BME280;12845;52.042;6.838;2023-04-28T02:21:55;-18264.84;;;8.79;100.00
24746;BME280;12845;52.042;6.838;2023-04-28T02:24:20;-18265.66;;;8.82;100.00
24746;BME280;12845;52.042;6.838;2023-04-28T02:26:45;-18264.97;;;8.80;100.00
24746;BME280;12845;52.042;6.838;2023-04-28T02:29:11;-18267.19;;;8.88;100.00
24746;BME280;12845;52.042;6.838;2023-04-28T02:31:36;-18267.59;;;8.90;100.00
24746;BME280;12845;52.042;6.838;2023-04-28T02:34:02;-18268.16;;;8.92;100.00
24746;BME280;12845;52.042;6.838;2023-04-28T02:36:27;-18267.88;;;8.91;100.00
24746;BME280;12845;52.042;6.838;2023-04-28T02:38:52;-18268.41;;;8.93;100.00
24746;BME280;12845;52.042;6.838;2023-04-28T02:41:18;-18268.41;;;8.93;100.00
24746;BME280;12845;52.042;6.838;2023-04-28T02:43:43;-18264.84;;;8.79;100.00
24746;BME280;12845;52.042;6.838;2023-04-28T02:46:08;-18263.88;;;8.76;100.00
24746;BME280;12845;52.042;6.838;2023-04-28T02:48:35;-18261.53;;;8.67;100.00
24746;BME280;12845;52.042;6.838;2023-04-28T02:51:01;-18261.13;;;8.66;100.00
24746;BME280;12845;52.042;6.838;2023-04-28T02:53:27;-18261.00;;;8.65;100.00
24746;BME280;12845;52.042;6.838;2023-04-28T02:55:52;-18259.88;;;8.61;100.00
24746;BME280;12845;52.042;6.838;2023-04-28T02:58:18;-18257.28;;;8.51;100.00
24746;BME280;12845;52.042;6.838;2023-04-28T03:00:43;-18256.44;;;8.48;100.00
24746;BME280;12845;52.042;6.838;2023-04-28T03:03:09;-18257.13;;;8.51;100.00
24746;BME280;12845;52.042;6.838;2023-04-28T03:05:34;-18256.72;;;8.49;100.00
24746;BME280;12845;52.042;6.838;2023-04-28T03:08:00;-18257.00;;;8.50;100.00
24746;BME280;12845;52.042;6.838;2023-04-28T03:10:25;-18256.31;;;8.48;100.00
24746;BME280;12845;52.042;6.838;2023-04-28T03:12:51;-18256.59;;;8.49;100.00
24746;BME280;12845;52.042;6.838;2023-04-28T03:15:16;-18256.59;;;8.49;100.00
24746;BME280;12845;52.042;6.838;2023-04-28T03:17:42;-18256.31;;;8.48;100.00
24746;BME280;12845;52.042;6.838;2023-04-28T03:20:08;-18256.16;;;8.47;100.00
24746;BME280;12845;52.042;6.838;2023-04-28T03:22:34;-18257.97;;;8.54;100.00
24746;BME280;12845;52.042;6.838;2023-04-28T03:24:59;-18255.91;;;8.46;100.00
24746;BME280;12845;52.042;6.838;2023-04-28T03:27:25;-18254.09;;;8.40;100.00
24746;BME280;12845;52.042;6.838;2023-04-28T03:29:51;-18257.97;;;8.54;100.00
24746;BME280;12845;52.042;6.838;2023-04-28T03:32:16;-18260.31;;;8.63;100.00
24746;BME280;12845;52.042;6.838;2023-04-28T03:34:41;-18259.06;;;8.58;100.00
24746;BME280;12845;52.042;6.838;2023-04-28T03:37:07;-18262.22;;;8.70;100.00
24746;BME280;12845;52.042;6.838;2023-04-28T03:39:32;-18260.44;;;8.63;100.00
24746;BME280;12845;52.042;6.838;2023-04-28T03:41:57;-18259.63;;;8.60;100.00
24746;BME280;12845;52.042;6.838;2023-04-28T03:44:23;-18263.47;;;8.74;100.00
24746;BME280;12845;52.042;6.838;2023-04-28T03:46:48;-18263.19;;;8.73;100.00
24746;BME280;12845;52.042;6.838;2023-04-28T03:49:14;-18263.31;;;8.74;100.00
24746;BME280;12845;52.042;6.838;2023-04-28T03:51:39;-18262.63;;;8.71;100.00
24746;BME280;12845;52.042;6.838;2023-04-28T03:54:05;-18264.16;;;8.77;100.00
24746;BME280;12845;52.042;6.838;2023-04-28T03:56:30;-18259.47;;;8.59;100.00
24746;BME280;12845;52.042;6.838;2023-04-28T03:58:56;-18261.28;;;8.66;100.00
24746;BME280;12845;52.042;6.838;2023-04-28T04:01:21;-18261.00;;;8.65;100.00
24746;BME280;12845;52.042;6.838;2023-04-28T04:03:47;-18260.16;;;8.62;100.00
24746;BME280;12845;52.042;6.838;2023-04-28T04:06:12;-18255.91;;;8.46;100.00
24746;BME280;12845;52.042;6.838;2023-04-28T04:08:38;-18255.63;;;8.45;100.00
24746;BME280;12845;52.042;6.838;2023-04-28T04:11:03;-18255.63;;;8.45;100.00
24746;BME280;12845;52.042;6.838;2023-04-28T04:13:28;-18256.31;;;8.48;100.00
24746;BME280;12845;52.042;6.838;2023-04-28T04:15:54;-18256.59;;;8.49;100.00
24746;BME280;12845;52.042;6.838;2023-04-28T04:18:19;-18258.94;;;8.57;100.00
24746;BME280;12845;52.042;6.838;2023-04-28T04:20:45;-18258.09;;;8.54;100.00
24746;BME280;12845;52.042;6.838;2023-04-28T04:23:10;-18258.66;;;8.56;100.00
24746;BME280;12845;52.042;6.838;2023-04-28T04:25:36;-18262.63;;;8.71;100.00
24746;BME280;12845;52.042;6.838;2023-04-28T04:28:01;-18263.75;;;8.75;100.00
24746;BME280;12845;52.042;6.838;2023-04-28T04:30:26;-18262.78;;;8.72;100.00
24746;BME280;12845;52.042;6.838;2023-04-28T04:32:52;-18259.06;;;8.58;100.00
24746;BME280;12845;52.042;6.838;2023-04-28T04:35:17;-18259.34;;;8.59;100.00
24746;BME280;12845;52.042;6.838;2023-04-28T04:37:43;-18259.06;;;8.58;100.00
24746;BME280;12845;52.042;6.838;2023-04-28T04:40:09;-18260.72;;;8.64;100.00
24746;BME280;12845;52.042;6.838;2023-04-28T04:42:34;-18261.53;;;8.67;100.00
24746;BME280;12845;52.042;6.838;2023-04-28T04:45:00;-18262.63;;;8.71;100.00
24746;BME280;12845;52.042;6.838;2023-04-28T04:47:25;-18263.06;;;8.73;100.00
24746;BME280;12845;52.042;6.838;2023-04-28T04:49:51;-18266.50;;;8.86;100.00
24746;BME280;12845;52.042;6.838;2023-04-28T04:52:16;-18262.09;;;8.69;100.00
24746;BME280;12845;52.042;6.838;2023-04-28T04:54:42;-18264.16;;;8.77;100.00
24746;BME280;12845;52.042;6.838;2023-04-28T04:57:07;-18264.28;;;8.77;100.00
24746;BME280;12845;52.042;6.838;2023-04-28T04:59:33;-18264.00;;;8.76;100.00
24746;BME280;12845;52.042;6.838;2023-04-28T05:01:58;-18264.72;;;8.79;100.00
24746;BME280;12845;52.042;6.838;2023-04-28T05:04:23;-18263.88;;;8.76;100.00
24746;BME280;12845;52.042;6.838;2023-04-28T05:06:49;-18262.78;;;8.72;100.00
24746;BME280;12845;52.042;6.838;2023-04-28T05:09:14;-18263.47;;;8.74;100.00
24746;BME280;12845;52.042;6.838;2023-04-28T05:11:39;-18264.00;;;8.76;100.00
24746;BME280;12845;52.042;6.838;2023-04-28T05:14:05;-18263.88;;;8.76;100.00
24746;BME280;12845;52.042;6.838;2023-04-28T05:16:30;-18264.84;;;8.79;100.00
24746;BME280;12845;52.042;6.838;2023-04-28T05:18:59;-18264.44;;;8.78;100.00
24746;BME280;12845;52.042;6.838;2023-04-28T05:21:24;-18265.41;;;8.81;100.00
24746;BME280;12845;52.042;6.838;2023-04-28T05:23:50;-18267.19;;;8.88;100.00
24746;BME280;12845;52.042;6.838;2023-04-28T05:26:15;-18267.59;;;8.90;100.00
24746;BME280;12845;52.042;6.838;2023-04-28T05:28:41;-18268.97;;;8.95;100.00
24746;BME280;12845;52.042;6.838;2023-04-28T05:31:06;-18270.63;;;9.01;100.00
24746;BME280;12845;52.042;6.838;2023-04-28T05:33:32;-18271.44;;;9.04;100.00
24746;BME280;12845;52.042;6.838;2023-04-28T05:35:57;-18269.81;;;8.98;100.00
24746;BME280;12845;52.042;6.838;2023-04-28T05:38:23;-18271.59;;;9.04;100.00
24746;BME280;12845;52.042;6.838;2023-04-28T05:40:48;-18274.47;;;9.15;100.00
24746;BME280;12845;52.042;6.838;2023-04-28T05:43:14;-18275.31;;;9.18;100.00
24746;BME280;12845;52.042;6.838;2023-04-28T05:45:39;-18276.94;;;9.24;100.00
24746;BME280;12845;52.042;6.838;2023-04-28T05:48:05;-18276.25;;;9.22;100.00
24746;BME280;12845;52.042;6.838;2023-04-28T05:50:30;-18277.09;;;9.25;100.00
24746;BME280;12845;52.042;6.838;2023-04-28T05:52:56;-18278.88;;;9.32;100.00
24746;BME280;12845;52.042;6.838;2023-04-28T05:55:21;-18279.56;;;9.34;100.00
24746;BME280;12845;52.042;6.838;2023-04-28T05:57:47;-18280.53;;;9.38;100.00
24746;BME280;12845;52.042;6.838;2023-04-28T06:00:13;-18282.19;;;9.44;100.00
24746;BME280;12845;52.042;6.838;2023-04-28T06:02:42;-18284.38;;;9.52;100.00
24746;BME280;12845;52.042;6.838;2023-04-28T06:05:07;-18286.16;;;9.59;100.00
24746;BME280;12845;52.042;6.838;2023-04-28T06:07:33;-18287.25;;;9.63;100.00
24746;BME280;12845;52.042;6.838;2023-04-28T06:09:58;-18286.84;;;9.61;100.00
24746;BME280;12845;52.042;6.838;2023-04-28T06:12:24;-18288.22;;;9.66;100.00
24746;BME280;12845;52.042;6.838;2023-04-28T06:14:50;-18289.19;;;9.70;100.00
24746;BME280;12845;52.042;6.838;2023-04-28T06:17:19;-18291.53;;;9.79;100.00
24746;BME280;12845;52.042;6.838;2023-04-28T06:19:44;-18293.59;;;9.86;100.00
24746;BME280;12845;52.042;6.838;2023-04-28T06:22:10;-18295.94;;;9.95;100.00
24746;BME280;12845;52.042;6.838;2023-04-28T06:24:35;-18297.31;;;10.00;100.00
24746;BME280;12845;52.042;6.838;2023-04-28T06:27:00;-18302.25;;;10.19;100.00
24746;BME280;12845;52.042;6.838;2023-04-28T06:29:27;-18301.28;;;10.15;100.00
24746;BME280;12845;52.042;6.838;2023-04-28T06:31:52;-18303.06;;;10.22;100.00
24746;BME280;12845;52.042;6.838;2023-04-28T06:34:22;-18303.75;;;10.24;100.00
24746;BME280;12845;52.042;6.838;2023-04-28T06:36:51;-18303.91;;;10.25;100.00
24746;BME280;12845;52.042;6.838;2023-04-28T06:39:16;-18303.63;;;10.24;100.00
24746;BME280;12845;52.042;6.838;2023-04-28T06:41:41;-18306.38;;;10.34;100.00
24746;BME280;12845;52.042;6.838;2023-04-28T06:44:07;-18306.94;;;10.36;100.00
24746;BME280;12845;52.042;6.838;2023-04-28T06:46:32;-18309.69;;;10.46;100.00
24746;BME280;12845;52.042;6.838;2023-04-28T06:48:57;-18309.53;;;10.46;100.00
24746;BME280;12845;52.042;6.838;2023-04-28T06:51:23;-18310.22;;;10.48;100.00
24746;BME280;12845;52.042;6.838;2023-04-28T06:53:48;-18308.56;;;10.42;100.00
24746;BME280;12845;52.042;6.838;2023-04-28T06:56:17;-18311.31;;;10.52;100.00
24746;BME280;12845;52.042;6.838;2023-04-28T06:58:42;-18310.78;;;10.50;100.00
24746;BME280;12845;52.042;6.838;2023-04-28T07:01:07;-18308.84;;;10.43;100.00
24746;BME280;12845;52.042;6.838;2023-04-28T07:03:33;-18310.09;;;10.48;100.00
24746;BME280;12845;52.042;6.838;2023-04-28T07:05:58;-18309.94;;;10.47;100.00
24746;BME280;12845;52.042;6.838;2023-04-28T07:08:24;-18310.78;;;10.50;100.00
24746;BME280;12845;52.042;6.838;2023-04-28T07:10:49;-18312.84;;;10.58;100.00
24746;BME280;12845;52.042;6.838;2023-04-28T07:13:14;-18311.47;;;10.53;100.00
24746;BME280;12845;52.042;6.838;2023-04-28T07:15:40;-18312.69;;;10.57;100.00
24746;BME280;12845;52.042;6.838;2023-04-28T07:18:05;-18313.53;;;10.60;100.00
24746;BME280;12845;52.042;6.838;2023-04-28T07:20:31;-18314.63;;;10.65;100.00
24746;BME280;12845;52.042;6.838;2023-04-28T07:22:56;-18314.63;;;10.65;100.00
24746;BME280;12845;52.042;6.838;2023-04-28T07:25:22;-18315.16;;;10.67;100.00
24746;BME280;12845;52.042;6.838;2023-04-28T07:27:47;-18313.53;;;10.60;100.00
24746;BME280;12845;52.042;6.838;2023-04-28T07:30:13;-18313.53;;;10.60;100.00
24746;BME280;12845;52.042;6.838;2023-04-28T07:32:38;-18315.72;;;10.69;100.00
24746;BME280;12845;52.042;6.838;2023-04-28T07:35:03;-18315.16;;;10.67;100.00
24746;BME280;12845;52.042;6.838;2023-04-28T07:37:29;-18313.53;;;10.60;100.00
24746;BME280;12845;52.042;6.838;2023-04-28T07:39:55;-18309.94;;;10.47;100.00
24746;BME280;12845;52.042;6.838;2023-04-28T07:42:21;-18309.25;;;10.45;100.00
24746;BME280;12845;52.042;6.838;2023-04-28T07:44:46;-18311.88;;;10.54;100.00
24746;BME280;12845;52.042;6.838;2023-04-28T07:47:11;-18312.44;;;10.56;100.00
24746;BME280;12845;52.042;6.838;2023-04-28T07:49:37;-18311.31;;;10.52;100.00
24746;BME280;12845;52.042;6.838;2023-04-28T07:52:03;-18311.06;;;10.51;100.00
24746;BME280;12845;52.042;6.838;2023-04-28T07:54:28;-18311.19;;;10.52;100.00
24746;BME280;12845;52.042;6.838;2023-04-28T07:56:55;-18313.66;;;10.61;100.00
24746;BME280;12845;52.042;6.838;2023-04-28T07:59:20;-18316.53;;;10.72;100.00
24746;BME280;12845;52.042;6.838;2023-04-28T08:01:46;-18318.59;;;10.79;100.00
24746;BME280;12845;52.042;6.838;2023-04-28T08:04:11;-18312.84;;;10.58;100.00
24746;BME280;12845;52.042;6.838;2023-04-28T08:06:37;-18310.63;;;10.50;100.00
24746;BME280;12845;52.042;6.838;2023-04-28T08:09:03;-18311.31;;;10.52;100.00
24746;BME280;12845;52.042;6.838;2023-04-28T08:11:30;-18313.66;;;10.61;100.00
24746;BME280;12845;52.042;6.838;2023-04-28T08:13:55;-18311.31;;;10.52;100.00
24746;BME280;12845;52.042;6.838;2023-04-28T08:16:25;-18313.25;;;10.59;100.00
24746;BME280;12845;52.042;6.838;2023-04-28T08:18:51;-18317.91;;;10.77;100.00
24746;BME280;12845;52.042;6.838;2023-04-28T08:21:16;-18317.91;;;10.77;100.00
24746;BME280;12845;52.042;6.838;2023-04-28T08:23:42;-18315.72;;;10.69;100.00
24746;BME280;12845;52.042;6.838;2023-04-28T08:26:07;-18319.56;;;10.83;100.00
24746;BME280;12845;52.042;6.838;2023-04-28T08:28:32;-18319.44;;;10.82;100.00
24746;BME280;12845;52.042;6.838;2023-04-28T08:30:58;-18319.00;;;10.81;100.00
24746;BME280;12845;52.042;6.838;2023-04-28T08:33:25;-18317.63;;;10.76;100.00
24746;BME280;12845;52.042;6.838;2023-04-28T08:35:50;-18319.28;;;10.82;100.00
24746;BME280;12845;52.042;6.838;2023-04-28T08:38:16;-18322.59;;;10.94;100.00
24746;BME280;12845;52.042;6.838;2023-04-28T08:40:42;-18325.34;;;11.04;100.00
24746;BME280;12845;52.042;6.838;2023-04-28T08:43:08;-18326.28;;;11.08;100.00
24746;BME280;12845;52.042;6.838;2023-04-28T08:45:41;-18326.28;;;11.08;100.00
24746;BME280;12845;52.042;6.838;2023-04-28T08:48:17;-18328.63;;;11.17;100.00
24746;BME280;12845;52.042;6.838;2023-04-28T08:50:51;-18330.56;;;11.24;100.00
24746;BME280;12845;52.042;6.838;2023-04-28T08:53:22;-18332.63;;;11.32;100.00
24746;BME280;12845;52.042;6.838;2023-04-28T08:55:54;-18334.13;;;11.37;100.00
24746;BME280;12845;52.042;6.838;2023-04-28T08:58:22;-18336.88;;;11.47;100.00
24746;BME280;12845;52.042;6.838;2023-04-28T09:00:48;-18340.16;;;11.60;100.00
24746;BME280;12845;52.042;6.838;2023-04-28T09:03:14;-18343.59;;;11.72;100.00
24746;BME280;12845;52.042;6.838;2023-04-28T09:05:39;-18346.75;;;11.84;100.00
24746;BME280;12845;52.042;6.838;2023-04-28T09:08:04;-18347.56;;;11.87;100.00
24746;BME280;12845;52.042;6.838;2023-04-28T09:10:30;-18351.56;;;12.02;100.00
24746;BME280;12845;52.042;6.838;2023-04-28T09:12:55;-18353.75;;;12.10;100.00
24746;BME280;12845;52.042;6.838;2023-04-28T09:15:36;-18359.66;;;12.32;100.00
24746;BME280;12845;52.042;6.838;2023-04-28T09:18:04;-18363.09;;;12.45;100.00
24746;BME280;12845;52.042;6.838;2023-04-28T09:20:32;-18364.31;;;12.50;100.00
24746;BME280;12845;52.042;6.838;2023-04-28T09:23:21;-18367.88;;;12.63;100.00
24746;BME280;12845;52.042;6.838;2023-04-28T09:26:06;-18371.72;;;12.77;100.00
24746;BME280;12845;52.042;6.838;2023-04-28T09:28:33;-18375.84;;;12.93;100.00
24746;BME280;12845;52.042;6.838;2023-04-28T09:30:59;-18381.03;;;13.12;100.00
24746;BME280;12845;52.042;6.838;2023-04-28T09:33:25;-18386.41;;;13.32;100.00
24746;BME280;12845;52.042;6.838;2023-04-28T09:35:51;-18389.81;;;13.45;100.00
24746;BME280;12845;52.042;6.838;2023-04-28T09:38:18;-18390.50;;;13.47;100.00
24746;BME280;12845;52.042;6.838;2023-04-28T09:40:58;-18392.69;;;13.56;100.00
24746;BME280;12845;52.042;6.838;2023-04-28T09:43:30;-18394.75;;;13.63;100.00
24746;BME280;12845;52.042;6.838;2023-04-28T09:45:58;-18397.22;;;13.72;100.00
24746;BME280;12845;52.042;6.838;2023-04-28T09:48:31;-18399.97;;;13.83;100.00
24746;BME280;12845;52.042;6.838;2023-04-28T09:50:58;-18400.78;;;13.86;100.00
24746;BME280;12845;52.042;6.838;2023-04-28T09:53:25;-18400.50;;;13.85;100.00
24746;BME280;12845;52.042;6.838;2023-04-28T09:55:55;-18400.78;;;13.86;100.00
24746;BME280;12845;52.042;6.838;2023-04-28T09:58:21;-18402.00;;;13.90;100.00
24746;BME280;12845;52.042;6.838;2023-04-28T10:00:57;-18407.91;;;14.12;100.00
24746;BME280;12845;52.042;6.838;2023-04-28T10:03:28;-18411.47;;;14.26;100.00
24746;BME280;12845;52.042;6.838;2023-04-28T10:05:55;-18416.13;;;14.43;100.00
24746;BME280;12845;52.042;6.838;2023-04-28T10:08:23;-18420.78;;;14.60;100.00
24746;BME280;12845;52.042;6.838;2023-04-28T10:10:49;-18416.81;;;14.45;100.00
24746;BME280;12845;52.042;6.838;2023-04-28T10:13:18;-18415.72;;;14.41;100.00
24746;BME280;12845;52.042;6.838;2023-04-28T10:15:44;-18414.88;;;14.38;100.00
24746;BME280;12845;52.042;6.838;2023-04-28T10:18:11;-18413.78;;;14.34;100.00
24746;BME280;12845;52.042;6.838;2023-04-28T10:20:38;-18417.22;;;14.47;100.00
24746;BME280;12845;52.042;6.838;2023-04-28T10:23:29;-18418.88;;;14.53;100.00
24746;BME280;12845;52.042;6.838;2023-04-28T10:26:00;-18419.53;;;14.56;100.00
24746;BME280;12845;52.042;6.838;2023-04-28T10:28:27;-18420.09;;;14.58;100.00
24746;BME280;12845;52.042;6.838;2023-04-28T10:31:12;-18421.59;;;14.63;100.00
24746;BME280;12845;52.042;6.838;2023-04-28T10:33:38;-18421.47;;;14.63;100.00
24746;BME280;12845;52.042;6.838;2023-04-28T10:36:05;-18419.69;;;14.56;100.00
24746;BME280;12845;52.042;6.838;2023-04-28T10:38:31;-18423.09;;;14.69;100.00
24746;BME280;12845;52.042;6.838;2023-04-28T10:40:57;-18425.03;;;14.76;100.00
24746;BME280;12845;52.042;6.838;2023-04-28T10:43:39;-18423.78;;;14.72;100.00
24746;BME280;12845;52.042;6.838;2023-04-28T10:46:07;-18422.97;;;14.69;100.00
24746;BME280;12845;52.042;6.838;2023-04-28T10:56:11;-18417.75;;;14.49;100.00
24746;BME280;12845;52.042;6.838;2023-04-28T10:58:37;-18421.31;;;14.62;100.00
24746;BME280;12845;52.042;6.838;2023-04-28T11:01:35;-18419.41;;;14.55;100.00
24746;BME280;12845;52.042;6.838;2023-04-28T11:04:07;-18419.00;;;14.54;100.00
24746;BME280;12845;52.042;6.838;2023-04-28T11:06:45;-18416.66;;;14.45;100.00
24746;BME280;12845;52.042;6.838;2023-04-28T11:11:36;-18414.88;;;14.38;100.00
24746;BME280;12845;52.042;6.838;2023-04-28T11:16:54;-18413.09;;;14.32;100.00
24746;BME280;12845;52.042;6.838;2023-04-28T11:21:47;-18410.91;;;14.23;100.00
24746;BME280;12845;52.042;6.838;2023-04-28T11:24:13;-18413.38;;;14.33;100.00
24746;BME280;12845;52.042;6.838;2023-04-28T11:26:40;-18416.66;;;14.45;100.00
24746;BME280;12845;52.042;6.838;2023-04-28T11:29:05;-18421.31;;;14.62;100.00
24746;BME280;12845;52.042;6.838;2023-04-28T11:31:32;-18419.97;;;14.57;100.00
24746;BME280;12845;52.042;6.838;2023-04-28T11:34:05;-18424.06;;;14.73;100.00
24746;BME280;12845;52.042;6.838;2023-04-28T11:36:40;-18429.69;;;14.94;100.00
24746;BME280;12845;52.042;6.838;2023-04-28T11:39:07;-18427.91;;;14.87;100.00
24746;BME280;12845;52.042;6.838;2023-04-28T11:41:38;-18427.34;;;14.85;100.00
24746;BME280;12845;52.042;6.838;2023-04-28T11:46:46;-18426.94;;;14.83;100.00
24746;BME280;12845;52.042;6.838;2023-04-28T11:49:15;-18424.88;;;14.76;100.00
24746;BME280;12845;52.042;6.838;2023-04-28T11:51:40;-18423.66;;;14.71;100.00
24746;BME280;12845;52.042;6.838;2023-04-28T11:54:07;-18425.03;;;14.76;100.00
24746;BME280;12845;52.042;6.838;2023-04-28T11:56:39;-18423.94;;;14.72;100.00
24746;BME280;12845;52.042;6.838;2023-04-28T11:59:07;-18424.19;;;14.73;100.00
24746;BME280;12845;52.042;6.838;2023-04-28T12:01:56;-18425.44;;;14.78;100.00
24746;BME280;12845;52.042;6.838;2023-04-28T12:04:28;-18423.25;;;14.70;100.00
24746;BME280;12845;52.042;6.838;2023-04-28T12:07:00;-18425.72;;;14.79;100.00
24746;BME280;12845;52.042;6.838;2023-04-28T12:09:26;-18425.97;;;14.80;100.00
24746;BME280;12845;52.042;6.838;2023-04-28T12:11:54;-18426.66;;;14.82;100.00
24746;BME280;12845;52.042;6.838;2023-04-28T12:14:20;-18423.66;;;14.71;100.00
24746;BME280;12845;52.042;6.838;2023-04-28T12:16:46;-18420.50;;;14.59;100.00
24746;BME280;12845;52.042;6.838;2023-04-28T12:19:13;-18422.16;;;14.65;100.00
24746;BME280;12845;52.042;6.838;2023-04-28T12:21:40;-18423.50;;;14.71;100.00
24746;BME280;12845;52.042;6.838;2023-04-28T12:24:16;-18423.25;;;14.70;100.00
24746;BME280;12845;52.042;6.838;2023-04-28T12:26:41;-18422.84;;;14.68;100.00
24746;BME280;12845;52.042;6.838;2023-04-28T12:29:07;-18422.69;;;14.68;100.00
24746;BME280;12845;52.042;6.838;2023-04-28T12:31:47;-18422.97;;;14.69;100.00
24746;BME280;12845;52.042;6.838;2023-04-28T12:34:13;-18424.75;;;14.75;100.00
24746;BME280;12845;52.042;6.838;2023-04-28T12:36:38;-18424.47;;;14.74;100.00
24746;BME280;12845;52.042;6.838;2023-04-28T12:39:03;-18422.16;;;14.65;100.00
24746;BME280;12845;52.042;6.838;2023-04-28T12:41:29;-18421.59;;;14.63;100.00
24746;BME280;12845;52.042;6.838;2023-04-28T12:43:54;-18423.66;;;14.71;100.00
24746;BME280;12845;52.042;6.838;2023-04-28T12:46:19;-18423.78;;;14.72;100.00
24746;BME280;12845;52.042;6.838;2023-04-28T12:48:45;-18426.25;;;14.81;100.00
24746;BME280;12845;52.042;6.838;2023-04-28T12:51:10;-18425.16;;;14.77;100.00
24746;BME280;12845;52.042;6.838;2023-04-28T12:53:36;-18427.34;;;14.85;100.00
24746;BME280;12845;52.042;6.838;2023-04-28T12:56:01;-18427.91;;;14.87;100.00
24746;BME280;12845;52.042;6.838;2023-04-28T12:58:27;-18429.53;;;14.93;100.00
24746;BME280;12845;52.042;6.838;2023-04-28T13:00:52;-18426.53;;;14.82;100.00